Arlington, Wisconsin
Current Conditions -  °F | °C
As of 7:53 PM on Sunday 23 Nov 2014 (Local Time) from KMSN Reporting Station
Light Rain Light Rain  
Wind Chill: 45°   Ceiling: 400
Heat Index: 48°   Visibility: 3mi
Dew Point: 46°   Wind: 6mph
Humidity: 93%   Direction: 110°ESE
Pressure: 29.27"   Gusts: NA
Location:  43.34°N, 89.38°W
Report Text: KMSN 240153Z 11005KT 3SM -RA BR OVC004 09/08 A2927 RMK AO2 SLP912 P0004 T00890078
Loading
Personal Weather Stations






























Interactive Weather Map New forecast layout! Learn more

10-Day Weather Forecast

Advertisements
Track Severe Weather on mobile